Time;durP1;ratioP1;P1;durP2;ratioP2;P2;SDS_P1;SDS_P2;PMS_P1;PMS_P2;Temp;Humidity;BMP_temperature;BMP_pressure;BME280_temperature;BME280_humidity;BME280_pressure;Samples;Min_cycle;Max_cycle;Signal;HPM_P1;HPM_P2
2024/04/19 00:00:47;;;;;;;3.97;1.67;;;6.00;99.90;;;;;;5444830;26;20326;-80
2024/04/19 00:03:13;;;;;;;2.95;1.75;;;5.90;99.90;;;;;;5472733;26;19998;-81
2024/04/19 00:05:41;;;;;;;4.13;1.20;;;5.90;99.90;;;;;;5483053;26;20070;-81
2024/04/19 00:08:07;;;;;;;4.85;1.48;;;6.00;99.90;;;;;;5477692;26;20462;-82
2024/04/19 00:10:35;;;;;;;6.13;1.83;;;6.00;99.90;;;;;;5473242;26;20009;-81
2024/04/19 00:13:01;;;;;;;4.03;1.77;;;6.00;99.90;;;;;;5472937;26;20766;-82
2024/04/19 00:15:27;;;;;;;5.18;1.65;;;6.00;99.90;;;;;;5476176;26;20474;-82
2024/04/19 00:17:53;;;;;;;4.35;1.58;;;6.00;99.90;;;;;;5446159;26;19995;-81
2024/04/19 00:20:19;;;;;;;4.40;1.42;;;5.90;99.90;;;;;;5447364;26;19998;-81
2024/04/19 00:22:45;;;;;;;3.58;1.90;;;5.90;99.90;;;;;;5475327;26;19994;-82
2024/04/19 00:25:10;;;;;;;3.13;1.35;;;6.00;99.90;;;;;;5477722;26;20012;-82
2024/04/19 00:27:36;;;;;;;2.55;1.65;;;6.00;99.90;;;;;;5477988;26;19998;-81
2024/04/19 00:30:02;;;;;;;7.10;1.70;;;6.00;99.90;;;;;;5434003;26;20530;-80
2024/04/19 00:32:27;;;;;;;4.20;1.10;;;6.00;99.90;;;;;;5491323;26;20263;-81
2024/04/19 00:34:53;;;;;;;4.68;1.42;;;6.00;99.90;;;;;;5460705;26;20067;-81
2024/04/19 00:37:18;;;;;;;3.83;1.60;;;6.00;99.90;;;;;;5461004;26;20067;-81
2024/04/19 00:39:44;;;;;;;4.03;1.30;;;6.00;99.90;;;;;;5453830;26;20006;-81
2024/04/19 00:42:09;;;;;;;5.65;1.80;;;5.90;99.90;;;;;;5483149;26;19997;-81
2024/04/19 00:44:35;;;;;;;2.55;1.58;;;5.90;99.90;;;;;;5476956;26;20006;-80
2024/04/19 00:47:02;;;;;;;2.10;1.38;;;5.90;99.90;;;;;;5455979;26;19993;-82
2024/04/19 00:49:28;;;;;;;4.28;1.23;;;5.90;99.90;;;;;;5453351;26;20003;-81
2024/04/19 00:51:54;;;;;;;5.03;1.73;;;5.90;99.90;;;;;;5448126;26;20022;-81
2024/04/19 00:54:20;;;;;;;5.90;1.58;;;5.80;99.90;;;;;;5454201;26;20065;-81
2024/04/19 00:56:47;;;;;;;7.22;2.20;;;5.80;99.90;;;;;;5447829;26;20014;-81
2024/04/19 00:59:13;;;;;;;3.35;1.83;;;5.80;99.90;;;;;;5455296;26;20424;-81
2024/04/19 01:01:39;;;;;;;5.50;1.77;;;5.70;99.90;;;;;;5479823;26;19994;-82
2024/04/19 01:04:05;;;;;;;3.90;1.70;;;5.70;99.90;;;;;;5449641;26;19994;-80
2024/04/19 01:06:30;;;;;;;4.65;1.73;;;5.70;99.90;;;;;;5477435;26;20664;-81
2024/04/19 01:08:56;;;;;;;3.83;1.85;;;5.70;99.90;;;;;;5483975;26;20022;-81
2024/04/19 01:11:22;;;;;;;5.47;1.85;;;5.60;99.90;;;;;;5471834;26;19999;-82
2024/04/19 01:13:48;;;;;;;2.63;1.55;;;5.60;99.90;;;;;;5452098;26;20585;-82
2024/04/19 01:16:14;;;;;;;2.47;1.63;;;5.60;99.90;;;;;;5452283;26;19994;-82
2024/04/19 01:18:39;;;;;;;2.38;1.48;;;5.50;99.90;;;;;;5479623;26;20009;-82
2024/04/19 01:21:08;;;;;;;7.13;2.15;;;5.60;99.90;;;;;;5448912;26;20002;-82
2024/04/19 01:23:35;;;;;;;6.35;1.92;;;5.50;99.90;;;;;;5453166;26;20071;-83
2024/04/19 01:26:06;;;;;;;5.50;2.38;;;5.50;99.90;;;;;;5476297;26;20013;-82
2024/04/19 01:28:32;;;;;;;3.15;1.77;;;5.50;99.90;;;;;;5446342;26;20069;-81
2024/04/19 01:30:57;;;;;;;4.53;1.92;;;5.50;99.90;;;;;;5478293;26;20010;-81
2024/04/19 01:33:23;;;;;;;7.20;2.30;;;5.50;99.90;;;;;;5452420;26;20002;-83
2024/04/19 01:35:48;;;;;;;3.67;2.22;;;5.40;99.90;;;;;;5438483;26;19995;-83
2024/04/19 01:38:14;;;;;;;2.10;1.75;;;5.50;99.90;;;;;;5474500;26;20044;-82
2024/04/19 01:40:40;;;;;;;3.28;1.83;;;5.40;99.90;;;;;;5471722;26;20002;-83
2024/04/19 01:43:06;;;;;;;5.47;2.67;;;5.40;99.90;;;;;;5450160;26;20013;-84
2024/04/19 01:45:31;;;;;;;5.90;2.90;;;5.40;99.90;;;;;;5480256;26;20386;-83
2024/04/19 01:47:58;;;;;;;5.10;2.92;;;5.30;99.90;;;;;;5478397;26;20017;-84
2024/04/19 01:50:24;;;;;;;3.72;2.72;;;5.40;99.90;;;;;;5446484;26;20002;-83
2024/04/19 01:52:49;;;;;;;6.20;2.47;;;5.40;99.90;;;;;;5475921;26;20850;-83
2024/04/19 01:55:17;;;;;;;4.22;2.92;;;5.40;99.90;;;;;;5451823;26;20465;-82
2024/04/19 01:57:43;;;;;;;9.85;3.22;;;5.40;99.90;;;;;;5448933;26;20092;-82
2024/04/19 02:00:09;;;;;;;4.53;2.80;;;5.40;99.90;;;;;;5480363;26;20003;-83
2024/04/19 02:02:35;;;;;;;6.75;3.60;;;5.40;99.90;;;;;;5445992;26;19990;-84
2024/04/19 02:05:01;;;;;;;4.63;3.15;;;5.30;99.90;;;;;;5451416;26;20079;-83
2024/04/19 02:07:26;;;;;;;6.95;3.45;;;5.30;99.90;;;;;;5483439;26;20017;-83
2024/04/19 02:09:52;;;;;;;7.15;4.13;;;5.30;99.90;;;;;;5452399;26;20387;-83
2024/04/19 02:12:18;;;;;;;5.53;4.15;;;5.30;99.90;;;;;;5480855;26;19998;-83
2024/04/19 02:14:43;;;;;;;3.95;3.40;;;5.30;99.90;;;;;;5481774;26;20044;-84
2024/04/19 02:17:09;;;;;;;6.60;4.05;;;5.30;99.90;;;;;;5477136;26;19994;-81
2024/04/19 02:19:39;;;;;;;6.20;4.28;;;5.20;99.90;;;;;;5486644;26;20307;-83
2024/04/19 02:22:05;;;;;;;4.53;3.35;;;5.20;99.90;;;;;;5447318;26;19998;-84
2024/04/19 02:24:32;;;;;;;5.22;3.78;;;5.20;99.90;;;;;;5452326;26;22605;-83
2024/04/19 02:27:00;;;;;;;5.88;2.97;;;5.20;99.90;;;;;;5475911;26;20009;-85
2024/04/19 02:32:09;;;;;;;5.32;3.53;;;5.20;99.90;;;;;;5484222;26;20006;-83
2024/04/19 02:34:35;;;;;;;4.15;3.38;;;5.20;99.90;;;;;;5487705;26;19998;-83
2024/04/19 02:37:01;;;;;;;5.35;3.60;;;5.20;99.90;;;;;;5485879;26;20005;-84
2024/04/19 02:39:26;;;;;;;3.63;2.85;;;5.20;99.90;;;;;;5449563;26;20350;-83
2024/04/19 02:41:52;;;;;;;5.90;3.47;;;5.10;99.90;;;;;;5479471;26;20009;-83
2024/04/19 02:44:17;;;;;;;5.22;3.13;;;5.10;99.90;;;;;;5482659;26;20040;-82
2024/04/19 02:46:43;;;;;;;7.15;3.30;;;5.10;99.90;;;;;;5456799;26;20933;-84
2024/04/19 02:49:08;;;;;;;4.60;3.38;;;5.10;99.90;;;;;;5450510;26;20042;-85
2024/04/19 02:51:34;;;;;;;3.15;2.85;;;5.00;99.90;;;;;;5475475;26;20058;-84
2024/04/19 02:53:59;;;;;;;3.42;3.13;;;5.00;99.90;;;;;;5485598;26;20564;-85
2024/04/19 02:56:25;;;;;;;4.85;2.97;;;5.00;99.90;;;;;;5479732;26;19998;-85
2024/04/19 02:58:52;;;;;;;5.22;3.30;;;5.00;99.90;;;;;;5484976;26;19994;-87
2024/04/19 03:01:18;;;;;;;4.65;2.83;;;5.00;99.90;;;;;;5452632;26;20012;-86
2024/04/19 03:03:43;;;;;;;3.50;3.00;;;5.00;99.90;;;;;;5475976;26;19998;-85
2024/04/19 03:06:09;;;;;;;4.35;3.00;;;5.00;99.90;;;;;;5488528;26;20417;-86
2024/04/19 03:08:35;;;;;;;4.07;3.15;;;5.00;99.90;;;;;;5481810;26;20090;-84
2024/04/19 03:11:04;;;;;;;3.40;2.90;;;5.00;99.90;;;;;;5478066;26;20015;-84
2024/04/19 03:13:29;;;;;;;4.85;2.60;;;4.90;99.90;;;;;;5452965;26;20096;-84
2024/04/19 03:16:09;;;;;;;2.90;2.70;;;4.90;99.90;;;;;;5454138;26;20002;-83
2024/04/19 03:18:34;;;;;;;3.30;2.90;;;4.90;99.90;;;;;;5485659;26;19994;-84
2024/04/19 03:21:01;;;;;;;4.13;3.20;;;4.90;99.90;;;;;;5479314;26;19995;-84
2024/04/19 03:23:27;;;;;;;3.65;2.95;;;4.90;99.90;;;;;;5480294;26;19994;-84
2024/04/19 03:26:00;;;;;;;3.42;2.90;;;4.90;99.90;;;;;;5477957;26;20002;-85
2024/04/19 03:28:26;;;;;;;3.28;2.97;;;4.80;99.90;;;;;;5496072;26;20002;-84
2024/04/19 03:30:51;;;;;;;3.90;3.53;;;4.80;99.90;;;;;;5479960;26;20078;-85
2024/04/19 03:33:17;;;;;;;3.28;2.90;;;4.80;99.90;;;;;;5452838;26;20006;-84
2024/04/19 03:35:42;;;;;;;3.45;3.15;;;4.80;99.90;;;;;;5482025;26;20017;-86
2024/04/19 03:38:08;;;;;;;4.28;3.20;;;4.80;99.90;;;;;;5481208;26;20002;-84
2024/04/19 03:40:34;;;;;;;3.63;2.95;;;4.80;99.90;;;;;;5484217;26;20006;-84
2024/04/19 03:42:59;;;;;;;3.10;2.80;;;4.80;99.90;;;;;;5482014;26;19994;-85
2024/04/19 03:45:40;;;;;;;3.38;3.08;;;4.80;99.90;;;;;;5453191;26;20013;-84
2024/04/19 03:48:06;;;;;;;3.88;3.17;;;4.80;99.90;;;;;;5475223;26;19995;-84
2024/04/19 03:50:32;;;;;;;3.47;3.17;;;4.80;99.90;;;;;;5484536;26;20034;-84
2024/04/19 03:52:57;;;;;;;3.20;2.55;;;4.70;99.90;;;;;;5450960;26;20078;-84
2024/04/19 03:55:23;;;;;;;3.88;3.00;;;4.70;99.90;;;;;;5474402;26;20014;-83
2024/04/19 03:57:49;;;;;;;3.60;3.13;;;4.70;99.90;;;;;;5450082;26;19994;-85
2024/04/19 04:00:14;;;;;;;5.15;3.00;;;4.70;99.90;;;;;;5483920;26;20005;-85
2024/04/19 04:02:40;;;;;;;3.72;3.05;;;4.70;99.90;;;;;;5478021;26;20314;-84
2024/04/19 04:05:05;;;;;;;6.10;3.17;;;4.70;99.90;;;;;;5455132;26;20070;-84
2024/04/19 04:07:31;;;;;;;4.00;3.47;;;4.70;99.90;;;;;;5488020;26;20006;-83
2024/04/19 04:09:57;;;;;;;4.78;3.78;;;4.80;99.90;;;;;;5483696;26;19991;-83
2024/04/19 04:12:23;;;;;;;5.53;3.10;;;4.80;99.90;;;;;;5474364;26;20003;-83
2024/04/19 04:14:49;;;;;;;4.25;3.05;;;4.70;99.90;;;;;;5442744;26;19998;-82
2024/04/19 04:17:15;;;;;;;3.55;3.15;;;4.70;99.90;;;;;;5486604;26;20021;-84
2024/04/19 04:19:41;;;;;;;5.13;3.90;;;4.70;99.90;;;;;;5486517;26;19994;-84
2024/04/19 04:22:07;;;;;;;3.83;3.33;;;4.70;99.90;;;;;;5484135;26;19999;-84
2024/04/19 04:24:32;;;;;;;4.85;3.58;;;4.70;99.90;;;;;;5453229;26;19998;-84
2024/04/19 04:26:58;;;;;;;4.60;3.88;;;4.70;99.90;;;;;;5445689;26;19994;-83
2024/04/19 04:29:27;;;;;;;5.20;4.03;;;4.70;99.90;;;;;;5479859;26;20502;-83
2024/04/19 04:31:53;;;;;;;4.20;3.70;;;4.70;99.90;;;;;;5475068;26;20514;-84
2024/04/19 04:34:18;;;;;;;5.20;4.57;;;4.70;99.90;;;;;;5487455;26;19998;-85
2024/04/19 04:36:44;;;;;;;5.50;3.95;;;4.60;99.90;;;;;;5451587;26;20006;-84
2024/04/19 04:39:09;;;;;;;5.32;3.88;;;4.70;99.90;;;;;;5451835;26;20346;-85
2024/04/19 04:41:39;;;;;;;4.60;4.13;;;4.60;99.90;;;;;;5450735;26;20005;-85
2024/04/19 04:44:07;;;;;;;4.10;3.70;;;4.60;99.90;;;;;;5487913;26;20454;-84
2024/04/19 04:46:33;;;;;;;4.15;3.78;;;4.60;99.90;;;;;;5478658;26;20018;-86
2024/04/19 04:49:00;;;;;;;4.63;3.83;;;4.60;99.90;;;;;;5482239;26;19998;-85
2024/04/19 04:51:25;;;;;;;4.15;3.33;;;4.60;99.90;;;;;;5472257;26;19998;-85
2024/04/19 04:53:51;;;;;;;6.63;3.90;;;4.50;99.90;;;;;;5445114;26;20010;-85
2024/04/19 04:56:16;;;;;;;4.30;3.38;;;4.50;99.90;;;;;;5447736;26;20021;-87
2024/04/19 04:58:42;;;;;;;2.78;2.58;;;4.50;99.90;;;;;;5481172;26;20074;-85
2024/04/19 05:01:08;;;;;;;4.05;2.83;;;4.50;99.90;;;;;;5446938;26;20122;-84
2024/04/19 05:03:33;;;;;;;3.08;2.78;;;4.40;99.90;;;;;;5444987;26;20011;-84
2024/04/19 05:05:59;;;;;;;2.80;2.60;;;4.40;99.90;;;;;;5488204;26;20456;-87
2024/04/19 05:08:24;;;;;;;3.55;2.55;;;4.40;99.90;;;;;;5453772;26;20006;-85
2024/04/19 05:10:50;;;;;;;2.45;2.10;;;4.40;99.90;;;;;;5476696;26;19990;-85
2024/04/19 05:13:15;;;;;;;2.63;2.42;;;4.40;99.90;;;;;;5442577;26;20471;-86
2024/04/19 05:15:41;;;;;;;2.00;1.80;;;4.40;99.90;;;;;;5451869;26;20458;-85
2024/04/19 05:18:07;;;;;;;3.30;2.30;;;4.40;99.90;;;;;;5444497;26;20477;-87
2024/04/19 05:20:33;;;;;;;2.83;2.55;;;4.30;99.90;;;;;;5484169;26;20010;-85
2024/04/19 05:22:59;;;;;;;3.90;2.83;;;4.30;99.90;;;;;;5480803;26;20104;-84
2024/04/19 05:25:24;;;;;;;2.42;2.22;;;4.30;99.90;;;;;;5476227;26;20036;-85
2024/04/19 05:27:50;;;;;;;3.55;2.83;;;4.40;99.90;;;;;;5452439;26;20003;-85
2024/04/19 05:30:15;;;;;;;4.78;2.75;;;4.40;99.90;;;;;;5453636;26;20005;-84
2024/04/19 05:32:41;;;;;;;3.78;2.40;;;4.40;99.90;;;;;;5455350;26;20047;-83
2024/04/19 05:35:06;;;;;;;2.83;2.63;;;4.40;99.90;;;;;;5476544;26;20893;-85
2024/04/19 05:37:33;;;;;;;3.22;2.67;;;4.40;99.90;;;;;;5449962;26;20008;-86
2024/04/19 05:39:59;;;;;;;3.78;3.20;;;4.40;99.90;;;;;;5476551;26;20005;-86
2024/04/19 05:42:25;;;;;;;5.57;3.38;;;4.40;99.90;;;;;;5481644;26;20094;-86
2024/04/19 05:44:50;;;;;;;3.88;2.92;;;4.40;99.90;;;;;;5487059;26;20006;-88
2024/04/19 05:47:16;;;;;;;3.33;3.03;;;4.50;99.90;;;;;;5454643;26;20013;-85
2024/04/19 05:49:43;;;;;;;4.35;3.05;;;4.50;99.90;;;;;;5454470;26;20321;-87
2024/04/19 05:52:08;;;;;;;3.95;3.35;;;4.50;99.90;;;;;;5452099;26;20513;-87
2024/04/19 05:54:34;;;;;;;4.70;3.53;;;4.60;99.90;;;;;;5456350;26;19998;-85
2024/04/19 05:56:59;;;;;;;3.35;3.03;;;4.60;99.90;;;;;;5453636;26;20029;-84
2024/04/19 05:59:25;;;;;;;3.45;3.15;;;4.60;99.90;;;;;;5484228;26;20007;-86
2024/04/19 06:01:51;;;;;;;4.88;2.80;;;4.70;99.90;;;;;;5449541;26;19990;-87
2024/04/19 06:04:16;;;;;;;2.88;2.58;;;4.70;99.90;;;;;;5487564;26;20009;-85
2024/04/19 06:06:42;;;;;;;3.10;2.80;;;4.70;99.90;;;;;;5450759;26;20010;-84
2024/04/19 06:09:07;;;;;;;4.18;3.20;;;4.80;99.90;;;;;;5485867;26;20001;-85
2024/04/19 06:11:33;;;;;;;3.70;3.30;;;4.80;99.90;;;;;;5471767;26;19995;-85
2024/04/19 06:13:58;;;;;;;4.18;2.95;;;4.80;99.90;;;;;;5457525;26;19994;-85
2024/04/19 06:16:24;;;;;;;4.15;3.20;;;4.80;99.90;;;;;;5455909;26;19998;-84
2024/04/19 06:18:50;;;;;;;3.00;2.70;;;4.80;99.90;;;;;;5483851;26;20394;-85
2024/04/19 06:21:15;;;;;;;4.20;2.78;;;4.80;99.90;;;;;;5459347;26;20017;-83
2024/04/19 06:23:41;;;;;;;3.58;2.95;;;4.90;99.90;;;;;;5478581;26;20030;-84
2024/04/19 06:26:07;;;;;;;3.47;3.13;;;4.90;99.90;;;;;;5479403;26;20357;-85
2024/04/19 06:28:35;;;;;;;3.90;2.83;;;5.00;99.90;;;;;;5472733;26;19990;-85
2024/04/19 06:31:12;;;;;;;5.78;3.88;;;5.00;99.90;;;;;;5451352;26;20024;-84
2024/04/19 06:33:39;;;;;;;3.38;3.08;;;5.00;99.90;;;;;;5443355;26;19994;-84
2024/04/19 06:36:05;;;;;;;5.10;3.75;;;5.10;99.90;;;;;;5481764;26;20013;-85
2024/04/19 06:38:32;;;;;;;3.55;3.22;;;5.10;99.90;;;;;;5480401;26;19999;-85
2024/04/19 06:40:57;;;;;;;3.92;3.53;;;5.20;99.90;;;;;;5452554;26;20012;-84
2024/04/19 06:43:23;;;;;;;4.75;4.22;;;5.20;99.90;;;;;;5483686;26;20003;-85
2024/04/19 06:45:48;;;;;;;4.05;3.53;;;5.20;99.90;;;;;;5453438;26;19998;-86
2024/04/19 06:48:14;;;;;;;5.40;4.55;;;5.30;99.90;;;;;;5483612;26;20518;-84
2024/04/19 06:50:39;;;;;;;8.57;4.43;;;5.30;99.90;;;;;;5479504;26;20002;-83
2024/04/19 06:53:05;;;;;;;4.65;4.25;;;5.30;99.90;;;;;;5488899;26;20019;-85
2024/04/19 06:55:32;;;;;;;4.53;4.13;;;5.40;99.90;;;;;;5454786;26;20051;-84
2024/04/19 06:57:57;;;;;;;5.38;4.22;;;5.50;99.90;;;;;;5477944;26;20047;-83
2024/04/19 07:00:24;;;;;;;5.90;4.75;;;5.50;99.90;;;;;;5450664;26;20475;-85
2024/04/19 07:02:50;;;;;;;5.68;5.13;;;5.60;99.90;;;;;;5452271;26;19998;-84
2024/04/19 07:05:18;;;;;;;5.22;4.70;;;5.60;99.90;;;;;;5446434;26;20197;-85
2024/04/19 07:07:48;;;;;;;9.00;5.82;;;5.70;99.90;;;;;;5475582;26;20007;-84
2024/04/19 07:10:14;;;;;;;6.95;5.72;;;5.70;99.90;;;;;;5452762;26;20403;-83
2024/04/19 07:12:39;;;;;;;7.30;5.72;;;5.80;99.90;;;;;;5479842;26;19993;-83
2024/04/19 07:15:05;;;;;;;5.60;5.10;;;5.80;99.90;;;;;;5484565;26;20012;-84
2024/04/19 07:17:33;;;;;;;7.80;5.75;;;5.80;99.90;;;;;;5471502;26;20017;-87
2024/04/19 07:19:59;;;;;;;8.73;4.93;;;5.90;99.90;;;;;;5483437;26;20013;-86
2024/04/19 07:22:25;;;;;;;6.72;6.03;;;5.90;99.90;;;;;;5486160;26;19994;-84
2024/04/19 07:24:50;;;;;;;6.10;5.50;;;5.90;99.90;;;;;;5452986;26;20005;-87
2024/04/19 07:27:16;;;;;;;6.03;5.43;;;6.00;99.90;;;;;;5483682;26;19990;-85
2024/04/19 07:29:41;;;;;;;5.10;4.60;;;6.00;99.90;;;;;;5479317;26;20006;-84
2024/04/19 07:32:07;;;;;;;6.32;5.07;;;6.10;99.90;;;;;;5487636;26;19994;-84
2024/04/19 07:34:34;;;;;;;5.22;4.72;;;6.20;99.90;;;;;;5451223;26;20006;-84
2024/04/19 07:36:59;;;;;;;6.13;5.32;;;6.30;99.90;;;;;;5455596;26;20028;-85
2024/04/19 07:39:25;;;;;;;6.13;5.03;;;6.40;99.90;;;;;;5453893;26;20030;-83
2024/04/19 07:41:50;;;;;;;5.75;5.07;;;6.50;99.90;;;;;;5487524;26;19998;-82
2024/04/19 07:44:16;;;;;;;8.63;5.65;;;6.70;99.90;;;;;;5482586;26;19995;-83
2024/04/19 07:46:42;;;;;;;8.13;5.30;;;6.80;99.90;;;;;;5448241;26;19999;-84
2024/04/19 07:49:07;;;;;;;7.97;5.88;;;6.90;99.90;;;;;;5481585;26;19999;-85
2024/04/19 07:51:33;;;;;;;6.40;5.68;;;7.00;99.90;;;;;;5481649;26;20006;-84
2024/04/19 07:53:58;;;;;;;6.47;4.45;;;7.10;99.90;;;;;;5449931;26;20013;-82
2024/04/19 07:56:25;;;;;;;6.28;4.85;;;7.10;99.90;;;;;;5455199;26;19998;-84
2024/04/19 07:58:51;;;;;;;6.97;4.43;;;7.10;99.90;;;;;;5452153;26;20042;-84
2024/04/19 08:01:16;;;;;;;4.95;4.55;;;7.10;99.90;;;;;;5482393;26;19994;-85
2024/04/19 08:03:47;;;;;;;5.25;3.72;;;7.20;99.90;;;;;;5485670;26;20303;-82
2024/04/19 08:06:13;;;;;;;8.65;4.03;;;7.20;99.90;;;;;;5477999;26;19998;-83
2024/04/19 08:08:38;;;;;;;5.72;4.25;;;7.30;99.90;;;;;;5481192;26;20017;-85
2024/04/19 08:11:04;;;;;;;5.20;4.05;;;7.40;99.90;;;;;;5485461;26;20013;-84
2024/04/19 08:13:29;;;;;;;5.35;3.90;;;7.50;99.90;;;;;;5481989;26;20075;-85
2024/04/19 08:15:55;;;;;;;6.72;5.60;;;7.70;99.90;;;;;;5453831;26;20013;-84
2024/04/19 08:18:20;;;;;;;7.15;5.63;;;7.80;99.90;;;;;;5453912;26;20403;-84
2024/04/19 08:20:46;;;;;;;13.40;7.40;;;7.90;99.90;;;;;;5453500;26;20469;-83
2024/04/19 08:23:12;;;;;;;10.63;4.57;;;8.00;99.90;;;;;;5484981;26;19995;-83
2024/04/19 08:25:38;;;;;;;6.47;3.40;;;8.10;99.90;;;;;;5446048;26;19994;-84
2024/04/19 08:28:03;;;;;;;5.85;3.17;;;8.30;99.90;;;;;;5482774;26;20012;-83
2024/04/19 08:30:29;;;;;;;8.43;4.90;;;8.30;99.90;;;;;;5479508;26;20354;-83
2024/04/19 08:32:55;;;;;;;6.97;3.67;;;8.40;99.90;;;;;;5474754;26;20079;-84
2024/04/19 08:35:21;;;;;;;8.45;3.08;;;8.60;99.90;;;;;;5442293;26;20049;-83
2024/04/19 08:37:46;;;;;;;8.50;2.97;;;8.70;99.90;;;;;;5481990;26;20013;-84
2024/04/19 08:40:12;;;;;;;7.28;2.83;;;8.70;99.90;;;;;;5486491;26;20002;-84
2024/04/19 08:42:38;;;;;;;3.80;2.20;;;8.70;99.90;;;;;;5479264;26;20002;-84
2024/04/19 08:45:05;;;;;;;5.88;1.98;;;8.60;99.90;;;;;;5486156;26;19994;-84
2024/04/19 08:47:35;;;;;;;5.03;1.92;;;8.50;99.90;;;;;;5453291;26;20030;-83
2024/04/19 08:50:04;;;;;;;7.72;1.60;;;8.30;99.90;;;;;;5445907;26;20013;-83
2024/04/19 08:52:31;;;;;;;2.80;1.35;;;8.10;99.90;;;;;;5478997;26;20009;-84
2024/04/19 08:55:06;;;;;;;3.35;1.40;;;8.00;99.90;;;;;;5446219;26;20003;-85
2024/04/19 08:57:35;;;;;;;1.83;1.17;;;8.10;99.90;;;;;;5474836;26;20314;-83
2024/04/19 09:00:02;;;;;;;3.20;1.05;;;8.10;99.90;;;;;;5445113;26;20854;-84
2024/04/19 09:02:28;;;;;;;2.00;0.93;;;8.30;99.90;;;;;;5441979;26;20002;-83
2024/04/19 09:04:54;;;;;;;2.40;1.08;;;8.40;99.90;;;;;;5452546;26;20002;-84
2024/04/19 09:07:19;;;;;;;3.03;1.15;;;8.60;99.90;;;;;;5480842;26;20008;-83
2024/04/19 09:09:47;;;;;;;3.22;1.05;;;8.70;99.90;;;;;;5474487;26;20069;-83
2024/04/19 09:12:12;;;;;;;5.80;1.27;;;8.70;99.90;;;;;;5445571;26;19994;-83
2024/04/19 09:14:38;;;;;;;4.70;1.10;;;8.70;99.90;;;;;;5448875;26;20007;-84
2024/04/19 09:17:04;;;;;;;1.00;0.60;;;8.80;99.90;;;;;;5441454;26;20381;-84
2024/04/19 09:19:29;;;;;;;4.72;0.85;;;8.70;99.90;;;;;;5438121;26;20536;-84
2024/04/19 09:21:55;;;;;;;2.67;1.60;;;8.80;99.90;;;;;;5485319;26;19995;-85
2024/04/19 09:24:21;;;;;;;5.05;1.30;;;8.80;99.90;;;;;;5478961;26;20013;-84
2024/04/19 09:27:14;;;;;;;5.43;1.25;;;8.70;99.90;;;;;;5450291;26;20461;-83
2024/04/19 09:29:40;;;;;;;1.92;1.20;;;8.50;99.90;;;;;;5474799;26;20009;-83
2024/04/19 09:32:06;;;;;;;3.28;1.20;;;8.40;99.90;;;;;;5474623;26;20326;-84
2024/04/19 09:34:31;;;;;;;4.20;1.17;;;8.40;99.90;;;;;;5473195;26;20009;-85
2024/04/19 09:36:57;;;;;;;2.10;0.98;;;8.50;99.90;;;;;;5472918;26;20082;-84
2024/04/19 09:39:24;;;;;;;1.55;0.85;;;8.60;99.90;;;;;;5443655;26;20006;-87
2024/04/19 09:41:51;;;;;;;2.88;0.82;;;8.70;99.90;;;;;;5442920;26;20295;-84
2024/04/19 09:44:24;;;;;;;4.88;1.10;;;8.70;99.90;;;;;;5441627;26;20025;-85
2024/04/19 09:46:53;;;;;;;3.38;1.15;;;8.80;99.90;;;;;;5445930;26;19998;-85
2024/04/19 09:49:21;;;;;;;3.13;1.40;;;8.80;99.90;;;;;;5441099;26;19998;-83
2024/04/19 09:51:48;;;;;;;5.25;1.55;;;8.80;99.90;;;;;;5473955;26;19999;-83
2024/04/19 09:54:19;;;;;;;4.25;1.52;;;8.70;99.90;;;;;;5447481;26;20002;-85
2024/04/19 09:56:55;;;;;;;3.80;1.40;;;8.60;99.90;;;;;;5475982;26;20037;-84
2024/04/19 09:59:21;;;;;;;4.63;1.55;;;8.60;99.90;;;;;;5476825;26;20001;-84
2024/04/19 10:01:47;;;;;;;4.32;2.10;;;8.70;99.90;;;;;;5438368;26;20007;-84
2024/04/19 10:04:14;;;;;;;4.75;1.63;;;8.70;99.90;;;;;;5493014;26;20000;-85
2024/04/19 10:06:40;;;;;;;2.72;1.50;;;8.80;99.90;;;;;;5492717;26;19994;-87
2024/04/19 10:09:09;;;;;;;4.13;1.83;;;9.00;99.90;;;;;;5468686;26;19994;-84
2024/04/19 10:11:38;;;;;;;5.70;1.67;;;9.10;99.90;;;;;;5440345;26;19998;-84
2024/04/19 10:14:05;;;;;;;4.28;1.38;;;9.20;99.90;;;;;;5473431;26;19995;-85
2024/04/19 10:16:31;;;;;;;5.88;2.22;;;9.30;99.90;;;;;;5485066;26;20006;-84
2024/04/19 10:18:56;;;;;;;3.88;1.50;;;9.40;99.90;;;;;;5447999;26;20003;-86
2024/04/19 10:21:27;;;;;;;6.28;1.95;;;9.30;99.90;;;;;;5445491;26;20035;-86
2024/04/19 10:23:53;;;;;;;3.95;2.15;;;9.20;99.90;;;;;;5451387;26;20009;-88
2024/04/19 10:26:22;;;;;;;5.43;2.42;;;9.10;99.90;;;;;;5471565;26;20069;-84
2024/04/19 10:28:50;;;;;;;5.57;1.83;;;8.90;99.90;;;;;;5446699;26;19995;-85
2024/04/19 10:31:38;;;;;;;5.32;1.25;;;8.90;99.90;;;;;;5446662;26;20055;-83
2024/04/19 10:34:06;;;;;;;4.68;1.85;;;8.90;99.90;;;;;;5475428;26;20375;-83
2024/04/19 10:36:33;;;;;;;6.72;1.85;;;8.80;99.90;;;;;;5454640;26;19999;-84
2024/04/19 10:38:59;;;;;;;5.82;1.23;;;8.80;99.90;;;;;;5480930;26;20345;-84
2024/04/19 10:41:24;;;;;;;6.20;1.80;;;8.90;99.90;;;;;;5478969;26;20018;-85
2024/04/19 10:43:52;;;;;;;2.65;1.50;;;9.00;99.90;;;;;;5446936;26;20009;-85
2024/04/19 10:46:19;;;;;;;6.22;1.38;;;9.00;99.90;;;;;;5451824;26;19995;-86
2024/04/19 10:48:45;;;;;;;3.83;1.27;;;9.10;99.90;;;;;;5479312;26;20061;-85
2024/04/19 10:51:13;;;;;;;1.52;0.93;;;9.20;99.90;;;;;;5456919;26;20003;-85
2024/04/19 10:53:42;;;;;;;4.95;1.70;;;9.40;99.90;;;;;;5492358;26;20006;-85
2024/04/19 10:56:08;;;;;;;5.63;1.40;;;9.60;99.90;;;;;;5450014;26;20471;-85
2024/04/19 10:58:34;;;;;;;3.92;1.65;;;9.70;99.90;;;;;;5472784;26;20003;-86
2024/04/19 11:01:00;;;;;;;5.45;1.70;;;9.70;99.90;;;;;;5482013;26;20347;-84
2024/04/19 11:03:26;;;;;;;2.80;1.23;;;9.60;99.90;;;;;;5483739;26;20000;-85
2024/04/19 11:05:54;;;;;;;7.80;1.90;;;9.50;99.90;;;;;;5449412;26;20441;-86
2024/04/19 11:08:20;;;;;;;5.30;1.60;;;9.20;99.90;;;;;;5500652;26;20001;-85
2024/04/19 11:10:46;;;;;;;3.08;1.55;;;9.10;99.90;;;;;;5465845;26;19994;-87
2024/04/19 11:13:12;;;;;;;5.47;1.90;;;9.20;99.90;;;;;;5485031;26;20011;-85
2024/04/19 11:15:38;;;;;;;7.13;1.75;;;9.20;99.90;;;;;;5451497;26;19998;-84
2024/04/19 11:18:06;;;;;;;4.40;1.42;;;9.20;99.90;;;;;;5453020;26;20161;-85
2024/04/19 11:20:33;;;;;;;5.45;1.02;;;9.20;99.90;;;;;;5478211;26;20002;-84
2024/04/19 11:23:02;;;;;;;12.23;3.63;;;9.20;99.90;;;;;;5452351;26;20022;-85
2024/04/19 11:25:36;;;;;;;8.90;1.88;;;9.30;99.90;;;;;;5442313;26;19997;-86
2024/04/19 11:28:07;;;;;;;11.68;1.48;;;9.40;99.90;;;;;;5446887;26;20070;-85
2024/04/19 11:30:38;;;;;;;4.60;0.80;;;9.30;99.90;;;;;;5477318;26;20002;-85
2024/04/19 11:33:06;;;;;;;7.80;1.70;;;9.20;99.90;;;;;;5484275;26;19995;-88
2024/04/19 11:35:38;;;;;;;3.55;0.80;;;9.00;99.90;;;;;;5472003;26;19990;-85
2024/04/19 11:38:04;;;;;;;3.97;0.80;;;8.80;99.90;;;;;;5472543;26;20010;-85
2024/04/19 11:40:30;;;;;;;4.60;1.00;;;8.90;99.90;;;;;;5448319;26;20002;-85
2024/04/19 11:42:56;;;;;;;19.10;2.97;;;8.90;99.90;;;;;;5481071;26;20592;-85
2024/04/19 11:45:21;;;;;;;7.30;1.73;;;9.00;99.90;;;;;;5452425;26;20051;-85
2024/04/19 11:47:50;;;;;;;3.65;1.52;;;9.20;99.90;;;;;;5482076;26;19998;-84
2024/04/19 11:50:18;;;;;;;4.00;1.45;;;9.20;99.90;;;;;;5478784;26;20081;-84
2024/04/19 11:52:43;;;;;;;7.75;1.45;;;9.40;99.90;;;;;;5450299;26;20012;-85
2024/04/19 11:55:09;;;;;;;5.40;1.25;;;9.50;99.90;;;;;;5475170;26;20038;-85
2024/04/19 11:57:34;;;;;;;12.40;2.35;;;9.60;99.90;;;;;;5482578;26;19994;-85
2024/04/19 12:00:00;;;;;;;6.90;1.58;;;9.80;99.90;;;;;;5476036;26;19990;-85
2024/04/19 12:02:26;;;;;;;8.43;1.73;;;10.00;99.90;;;;;;5477674;26;20104;-85
2024/04/19 12:04:51;;;;;;;5.38;1.58;;;10.10;99.90;;;;;;5451433;26;19995;-86
2024/04/19 12:07:17;;;;;;;4.57;1.17;;;10.10;99.90;;;;;;5488023;26;19994;-85
2024/04/19 12:09:42;;;;;;;4.95;1.17;;;9.90;99.90;;;;;;5457240;26;20051;-84
2024/04/19 12:12:09;;;;;;;5.88;1.10;;;9.40;99.90;;;;;;5478066;26;20002;-84
2024/04/19 12:14:35;;;;;;;5.60;1.75;;;9.20;99.90;;;;;;5459512;26;19999;-84
2024/04/19 12:17:03;;;;;;;5.15;1.60;;;9.00;99.90;;;;;;5452480;26;20012;-85
2024/04/19 12:19:30;;;;;;;3.13;1.20;;;9.00;99.90;;;;;;5476751;26;19998;-84
2024/04/19 12:21:55;;;;;;;5.05;1.75;;;9.00;99.90;;;;;;5477653;26;20009;-84
2024/04/19 12:24:21;;;;;;;7.53;1.83;;;9.10;99.90;;;;;;5482553;26;20310;-85
2024/04/19 12:26:46;;;;;;;8.68;1.88;;;9.20;99.90;;;;;;5442017;26;20078;-83
2024/04/19 12:29:12;;;;;;;11.85;1.92;;;9.30;99.90;;;;;;5454067;26;19994;-83
2024/04/19 12:31:37;;;;;;;10.52;2.28;;;9.30;99.90;;;;;;5451118;26;20014;-84
2024/04/19 12:34:03;;;;;;;9.98;2.75;;;9.20;99.90;;;;;;5485995;26;20011;-85
2024/04/19 12:36:29;;;;;;;3.85;1.65;;;9.40;99.90;;;;;;5449830;26;19994;-84
2024/04/19 12:38:54;;;;;;;6.00;1.73;;;9.40;99.90;;;;;;5483859;26;20047;-86
2024/04/19 12:41:20;;;;;;;4.05;1.63;;;9.50;99.90;;;;;;5454482;26;20390;-84
2024/04/19 12:43:47;;;;;;;5.63;2.03;;;9.60;99.90;;;;;;5472740;26;20003;-83
2024/04/19 12:46:13;;;;;;;3.88;1.20;;;9.70;99.90;;;;;;5483834;26;20408;-84
2024/04/19 12:48:38;;;;;;;9.05;2.40;;;9.70;99.90;;;;;;5447053;26;19998;-83
2024/04/19 12:51:04;;;;;;;3.88;1.10;;;9.70;99.90;;;;;;5479773;26;19990;-84
2024/04/19 12:53:30;;;;;;;6.00;1.98;;;9.60;99.90;;;;;;5478093;26;20064;-85
2024/04/19 12:55:56;;;;;;;7.82;1.83;;;9.60;99.90;;;;;;5473049;26;19991;-84